LIRS/GRS METAR and TAF weather

Enter ICAO airport designator
Station Type Date Time Source
LIRS METAR 2021/09/25 10:55 UTC NOAA

LIRS 251055Z 20008KT 160V230 9999 SCT040 27/20 Q1020


Station Type Date Time Source
LIRS Decoded METAR 2021/09/25 10:55 UTC NOAA

Grosseto, Italy (LIRS) 42-45N 011-04E 7M
Sep 25, 2021 - 06:55 AM EDT / 2021.09.25 1055 UTC
Wind: from the SSW (200 degrees) at 9 MPH (8 KT) (direction variable):0
Visibility: greater than 7 mile(s):0
Sky conditions: partly cloudy
Temperature: 80 F (27 C)
Dew Point: 68 F (20 C)
Relative Humidity: 65%
Pressure (altimeter): 30.12 in. Hg (1020 hPa)
ob: LIRS 251055Z 20008KT 160V230 9999 SCT040 27/20 Q1020
cycle: 11

Station Type Date Time Source
LIRS TAF 2018/06/29 09:24 UTC NOAA

TAF TAF LIRS 290800Z 2909/2921 VRB03KT 9999 FEW030
BECMG 2911/2913 24015KT

Example: see airport list